Time;durP1;ratioP1;P1;durP2;ratioP2;P2;SDS_P1;SDS_P2;PMS_P1;PMS_P2;Temp;Humidity;BMP_temperature;BMP_pressure;BME280_temperature;BME280_humidity;BME280_pressure;Samples;Min_cycle;Max_cycle;Signal;HPM_P1;HPM_P2
2021/05/03 00:01:10;;;;;;;5.12;1.00;;;16.00;93.70;;;;;;1735793;83;21726;-79
2021/05/03 00:03:38;;;;;;;1.60;0.72;;;16.00;90.40;;;;;;1735689;81;21177;-79
2021/05/03 00:06:06;;;;;;;2.47;0.75;;;15.90;88.70;;;;;;1735763;83;21715;-79
2021/05/03 00:08:34;;;;;;;2.37;0.60;;;15.90;85.20;;;;;;1735793;82;21159;-79
2021/05/03 00:11:02;;;;;;;1.95;0.60;;;15.80;76.10;;;;;;1735767;82;21170;-78
2021/05/03 00:13:30;;;;;;;2.22;0.60;;;15.80;79.90;;;;;;1735779;83;21131;-79
2021/05/03 00:15:58;;;;;;;3.08;0.70;;;15.80;78.40;;;;;;1735624;82;21154;-78
2021/05/03 00:18:25;;;;;;;4.80;0.80;;;15.70;73.80;;;;;;1735580;83;21186;-78
2021/05/03 00:20:53;;;;;;;2.25;0.70;;;15.70;74.10;;;;;;1736040;83;21152;-78
2021/05/03 00:23:21;;;;;;;3.85;0.60;;;15.70;73.10;;;;;;1735842;83;21313;-78
2021/05/03 00:25:49;;;;;;;2.40;0.55;;;15.70;75.70;;;;;;1735765;83;21296;-78
2021/05/03 00:28:16;;;;;;;4.03;0.80;;;15.70;72.10;;;;;;1735865;82;21305;-78
2021/05/03 00:30:44;;;;;;;1.57;0.70;;;15.70;71.50;;;;;;1735736;82;21158;-79
2021/05/03 00:33:12;;;;;;;1.37;0.65;;;15.60;68.80;;;;;;1735786;83;21166;-79
2021/05/03 00:35:39;;;;;;;2.83;0.68;;;15.60;72.10;;;;;;1735587;82;21304;-80
2021/05/03 00:38:07;;;;;;;2.17;0.60;;;15.60;68.00;;;;;;1735558;83;21153;-80
2021/05/03 00:40:35;;;;;;;2.80;0.50;;;15.60;68.80;;;;;;1734548;82;21193;-79
2021/05/03 00:43:02;;;;;;;1.10;0.55;;;15.60;71.00;;;;;;1727537;83;21147;-79
2021/05/03 00:45:30;;;;;;;2.15;0.65;;;15.60;69.30;;;;;;1727286;83;21300;-79
2021/05/03 00:47:58;;;;;;;5.83;0.88;;;15.60;70.00;;;;;;1727333;83;21592;-79
2021/05/03 00:50:29;;;;;;;2.65;0.60;;;15.60;69.60;;;;;;1727240;83;21308;-79
2021/05/03 00:52:57;;;;;;;3.00;0.60;;;15.60;69.90;;;;;;1727456;83;21166;-80
2021/05/03 00:55:27;;;;;;;1.42;0.57;;;15.60;72.40;;;;;;1727345;83;21181;-79
2021/05/03 00:57:55;;;;;;;1.35;0.70;;;15.60;72.80;;;;;;1727638;83;21173;-79
2021/05/03 01:00:26;;;;;;;5.30;1.20;;;15.70;75.70;;;;;;1727444;83;21580;-79
2021/05/03 01:02:54;;;;;;;2.02;0.90;;;15.70;78.30;;;;;;1727297;83;21123;-79
2021/05/03 01:05:22;;;;;;;2.08;1.10;;;15.60;81.30;;;;;;1727624;83;21581;-79
2021/05/03 01:07:49;;;;;;;2.00;0.85;;;15.50;81.70;;;;;;1727451;83;21174;-79
2021/05/03 01:10:17;;;;;;;4.17;0.95;;;15.40;83.70;;;;;;1727511;83;21170;-79
2021/05/03 01:12:45;;;;;;;2.22;0.98;;;15.30;84.90;;;;;;1727541;83;21169;-79
2021/05/03 01:15:13;;;;;;;3.42;1.10;;;15.20;84.00;;;;;;1727402;83;21300;-79
2021/05/03 01:17:41;;;;;;;4.97;1.07;;;15.20;85.20;;;;;;1727255;82;21171;-79
2021/05/03 01:20:16;;;;;;;3.65;0.88;;;15.00;85.20;;;;;;1727519;83;21146;-79
2021/05/03 01:22:43;;;;;;;2.98;1.35;;;14.90;86.80;;;;;;1727551;83;21119;-79
2021/05/03 01:25:13;;;;;;;1.70;1.02;;;14.90;85.60;;;;;;1727240;82;21336;-80
2021/05/03 01:27:41;;;;;;;2.52;1.20;;;14.80;86.90;;;;;;1727512;83;21146;-79
2021/05/03 01:30:11;;;;;;;3.85;0.98;;;14.80;85.90;;;;;;1727398;83;21178;-79
2021/05/03 01:32:39;;;;;;;3.65;0.95;;;14.70;86.10;;;;;;1727351;82;21166;-79
2021/05/03 01:35:11;;;;;;;2.75;1.00;;;14.60;84.60;;;;;;1727299;83;21611;-79
2021/05/03 01:37:39;;;;;;;3.33;1.05;;;14.50;84.20;;;;;;1727536;83;21154;-79
2021/05/03 01:40:09;;;;;;;3.22;1.00;;;14.40;85.00;;;;;;1727406;83;21162;-79
2021/05/03 01:42:37;;;;;;;2.42;0.82;;;14.30;85.30;;;;;;1734023;83;21295;-79
2021/05/03 01:45:07;;;;;;;1.67;0.80;;;14.30;83.70;;;;;;1735497;82;21174;-79
2021/05/03 01:47:36;;;;;;;2.52;1.32;;;14.20;83.20;;;;;;1735740;83;21632;-79
2021/05/03 01:50:06;;;;;;;2.52;0.90;;;14.10;81.00;;;;;;1735716;83;21175;-79
2021/05/03 01:52:37;;;;;;;1.50;0.90;;;14.00;80.60;;;;;;1735574;82;21286;-79
2021/05/03 01:55:06;;;;;;;2.12;1.00;;;13.90;80.90;;;;;;1735563;82;21162;-80
2021/05/03 01:57:34;;;;;;;3.52;0.80;;;13.70;80.70;;;;;;1735531;83;21286;-79
2021/05/03 02:00:02;;;;;;;4.42;1.00;;;13.70;79.30;;;;;;1735551;82;21221;-79
2021/05/03 02:02:32;;;;;;;2.50;0.93;;;13.60;80.50;;;;;;1735541;83;21181;-80
2021/05/03 02:05:00;;;;;;;3.50;1.70;;;13.40;79.80;;;;;;1735620;82;21604;-79
2021/05/03 02:07:28;;;;;;;3.05;0.88;;;13.40;80.90;;;;;;1735526;82;21580;-79
2021/05/03 02:09:55;;;;;;;1.90;1.00;;;13.30;81.60;;;;;;1735495;81;21194;-79
2021/05/03 02:12:23;;;;;;;2.83;1.20;;;13.20;83.60;;;;;;1735726;83;21707;-79
2021/05/03 02:14:51;;;;;;;5.15;1.10;;;13.10;83.70;;;;;;1735541;82;21142;-79
2021/05/03 02:17:18;;;;;;;1.27;0.90;;;13.00;81.70;;;;;;1735710;83;21159;-79
2021/05/03 02:19:46;;;;;;;2.58;1.15;;;12.90;81.20;;;;;;1735718;83;21207;-79
2021/05/03 02:22:13;;;;;;;2.25;1.10;;;12.80;81.40;;;;;;1735859;83;21175;-80
2021/05/03 02:24:41;;;;;;;3.65;1.00;;;12.80;81.20;;;;;;1735675;83;21303;-79
2021/05/03 02:27:09;;;;;;;1.42;1.00;;;12.70;81.90;;;;;;1735930;83;21170;-78
2021/05/03 02:29:38;;;;;;;3.90;1.15;;;12.60;83.00;;;;;;1735746;83;21174;-80
2021/05/03 02:32:09;;;;;;;2.33;1.25;;;12.50;81.90;;;;;;1709834;83;21162;-78
2021/05/03 02:34:36;;;;;;;3.20;1.10;;;12.50;81.40;;;;;;1735770;82;21628;-79
2021/05/03 02:37:04;;;;;;;1.90;1.32;;;12.40;83.20;;;;;;1735851;81;21155;-80
2021/05/03 02:39:32;;;;;;;3.65;1.27;;;12.40;83.10;;;;;;1735873;83;21719;-79
2021/05/03 02:42:00;;;;;;;2.67;1.00;;;12.30;83.10;;;;;;1735594;81;21308;-79
2021/05/03 02:44:29;;;;;;;2.33;1.10;;;12.20;83.50;;;;;;1735858;82;21723;-80
2021/05/03 02:46:57;;;;;;;2.67;1.12;;;12.20;86.50;;;;;;1735692;82;21170;-80
2021/05/03 02:49:25;;;;;;;2.45;1.20;;;12.20;84.90;;;;;;1735863;83;21316;-80
2021/05/03 02:51:52;;;;;;;2.00;1.15;;;12.10;87.40;;;;;;1735864;83;21139;-80
2021/05/03 02:54:20;;;;;;;4.45;1.20;;;12.00;86.30;;;;;;1735760;81;21727;-80
2021/05/03 02:56:48;;;;;;;3.87;1.20;;;12.00;87.80;;;;;;1735685;82;21134;-80
2021/05/03 02:59:15;;;;;;;2.67;1.50;;;12.00;88.20;;;;;;1735717;82;21785;-80
2021/05/03 03:01:43;;;;;;;3.85;1.20;;;12.00;87.00;;;;;;1735750;82;21131;-79
2021/05/03 03:04:11;;;;;;;2.85;1.10;;;12.00;87.30;;;;;;1735934;81;21335;-79
2021/05/03 03:06:38;;;;;;;3.62;1.20;;;12.00;87.70;;;;;;1735776;81;21603;-79
2021/05/03 03:09:06;;;;;;;2.42;1.20;;;11.90;90.10;;;;;;1735737;83;21186;-79
2021/05/03 03:11:34;;;;;;;3.37;1.17;;;11.80;90.70;;;;;;1735743;82;21300;-79
2021/05/03 03:14:03;;;;;;;3.67;1.95;;;11.80;88.70;;;;;;1735734;83;21296;-79
2021/05/03 03:16:31;;;;;;;2.50;1.62;;;11.80;85.60;;;;;;1735857;83;21711;-79
2021/05/03 03:19:00;;;;;;;2.87;1.60;;;11.70;85.60;;;;;;1735752;83;21714;-79
2021/05/03 03:21:28;;;;;;;5.55;1.60;;;11.70;86.10;;;;;;1735843;83;21160;-79
2021/05/03 03:23:56;;;;;;;8.43;1.80;;;11.70;86.90;;;;;;1735823;83;21159;-80
2021/05/03 03:26:24;;;;;;;2.22;1.40;;;11.60;85.00;;;;;;1735620;83;21159;-79
2021/05/03 03:28:52;;;;;;;2.55;1.50;;;11.60;90.10;;;;;;1735903;83;21333;-79
2021/05/03 03:31:20;;;;;;;2.52;1.52;;;11.50;90.40;;;;;;1735619;83;21130;-79
2021/05/03 03:33:48;;;;;;;4.97;1.75;;;11.40;90.20;;;;;;1735829;83;21300;-80
2021/05/03 03:36:15;;;;;;;4.12;1.77;;;11.30;90.30;;;;;;1735809;83;21331;-80
2021/05/03 03:38:43;;;;;;;4.62;1.70;;;11.30;91.90;;;;;;1736054;82;21292;-80
2021/05/03 03:41:11;;;;;;;3.83;2.00;;;11.30;92.10;;;;;;1735704;82;21182;-80
2021/05/03 03:43:40;;;;;;;2.40;1.65;;;11.30;91.10;;;;;;1727455;83;21593;-80
2021/05/03 03:46:07;;;;;;;2.58;1.20;;;11.30;90.30;;;;;;1727308;82;21157;-80
2021/05/03 03:48:35;;;;;;;2.83;1.30;;;11.30;92.30;;;;;;1727575;83;21186;-80
2021/05/03 03:51:05;;;;;;;4.05;2.02;;;11.30;91.60;;;;;;1727471;83;21178;-81
2021/05/03 03:53:33;;;;;;;2.42;1.52;;;11.30;92.40;;;;;;1727513;83;21174;-81
2021/05/03 03:56:01;;;;;;;2.50;1.50;;;11.40;92.20;;;;;;1727408;83;21593;-80
2021/05/03 03:58:29;;;;;;;2.80;1.77;;;11.50;91.70;;;;;;1727548;83;21550;-80
2021/05/03 04:00:56;;;;;;;7.08;2.10;;;11.60;87.90;;;;;;1727291;83;21287;-80
2021/05/03 04:03:25;;;;;;;3.90;2.20;;;11.60;86.90;;;;;;1727292;83;21203;-80
2021/05/03 04:14:16;;;;;;;6.28;2.37;;;11.50;88.50;;;;;;1727405;83;21589;-80
2021/05/03 04:24:43;;;;;;;3.90;2.30;;;11.40;84.30;;;;;;1727550;83;21452;-80
2021/05/03 04:27:07;;;;;;;3.98;2.60;;;11.40;84.30;;;;;;1727121;83;21162;-79
2021/05/03 04:29:35;;;;;;;3.83;2.70;;;11.40;85.30;;;;;;1727441;83;21202;-80
2021/05/03 04:32:03;;;;;;;4.08;2.30;;;11.30;84.20;;;;;;1727326;83;21181;-81
2021/05/03 04:34:31;;;;;;;3.62;2.65;;;11.20;85.90;;;;;;1727341;83;21584;-79
2021/05/03 04:36:59;;;;;;;6.17;2.77;;;11.20;85.60;;;;;;1727324;82;21324;-80
2021/05/03 04:39:26;;;;;;;4.87;3.00;;;11.20;86.00;;;;;;1727428;83;21726;-81
2021/05/03 04:41:54;;;;;;;4.20;2.80;;;11.10;86.70;;;;;;1727346;83;21585;-80
2021/05/03 04:44:22;;;;;;;3.42;2.50;;;11.10;85.80;;;;;;1727451;83;21263;-81
2021/05/03 04:46:50;;;;;;;3.98;2.80;;;11.10;87.60;;;;;;1727279;83;21304;-81
2021/05/03 04:49:17;;;;;;;4.05;2.77;;;11.10;88.20;;;;;;1727734;83;21183;-81
2021/05/03 04:51:45;;;;;;;3.17;2.35;;;11.10;87.70;;;;;;1727409;83;21151;-81
2021/05/03 04:54:13;;;;;;;4.97;2.98;;;11.20;88.50;;;;;;1727437;83;21162;-81
2021/05/03 04:56:40;;;;;;;4.22;2.80;;;11.20;86.30;;;;;;1727453;83;21170;-81
2021/05/03 04:59:08;;;;;;;5.10;3.20;;;11.20;87.30;;;;;;1727348;83;21596;-81
2021/05/03 05:01:35;;;;;;;4.03;2.90;;;11.30;87.00;;;;;;1727324;83;21604;-81
2021/05/03 05:04:04;;;;;;;3.98;2.70;;;11.30;85.00;;;;;;1727361;83;21289;-81
2021/05/03 05:06:32;;;;;;;4.03;2.98;;;11.30;85.30;;;;;;1727233;83;21138;-80
2021/05/03 05:09:04;;;;;;;4.92;2.98;;;11.30;84.40;;;;;;1727445;83;21160;-80
2021/05/03 05:11:31;;;;;;;4.47;2.80;;;11.20;84.10;;;;;;1727064;82;21167;-80
2021/05/03 05:13:58;;;;;;;3.40;2.50;;;11.20;85.70;;;;;;1727227;83;21297;-80
2021/05/03 05:16:26;;;;;;;3.87;2.70;;;11.20;84.40;;;;;;1727331;83;21339;-80
2021/05/03 05:18:54;;;;;;;4.45;2.85;;;11.20;85.10;;;;;;1727246;83;21724;-79
2021/05/03 05:21:22;;;;;;;3.77;2.67;;;11.20;86.00;;;;;;1727359;83;21162;-80
2021/05/03 05:23:50;;;;;;;9.23;2.77;;;11.30;84.90;;;;;;1727326;83;21592;-80
2021/05/03 05:26:17;;;;;;;4.53;2.90;;;11.30;84.60;;;;;;1727198;83;21190;-80
2021/05/03 05:28:44;;;;;;;4.65;2.75;;;11.30;84.10;;;;;;1727231;83;21731;-81
2021/05/03 05:31:12;;;;;;;3.75;2.70;;;11.30;82.90;;;;;;1727557;83;21171;-80
2021/05/03 05:33:40;;;;;;;4.60;2.80;;;11.30;84.50;;;;;;1727478;83;21131;-80
2021/05/03 05:36:08;;;;;;;4.37;2.72;;;11.30;84.10;;;;;;1727239;82;21158;-80
2021/05/03 05:38:37;;;;;;;4.42;2.70;;;11.40;83.60;;;;;;1727455;82;21143;-80
2021/05/03 05:41:06;;;;;;;6.05;2.70;;;11.50;82.60;;;;;;1727417;83;21170;-80
2021/05/03 05:43:34;;;;;;;3.45;2.47;;;11.60;84.20;;;;;;1727222;82;21588;-80
2021/05/03 05:46:02;;;;;;;4.00;2.80;;;11.60;82.00;;;;;;1727620;83;21179;-80
2021/05/03 05:48:29;;;;;;;4.55;2.52;;;11.70;81.20;;;;;;1727296;82;21269;-80
2021/05/03 05:50:57;;;;;;;5.15;2.40;;;11.70;81.70;;;;;;1727363;83;21565;-80
2021/05/03 05:53:25;;;;;;;6.47;2.72;;;11.70;81.20;;;;;;1727221;83;21305;-80
2021/05/03 05:55:52;;;;;;;4.60;2.80;;;11.80;80.40;;;;;;1728075;83;21174;-80
2021/05/03 05:58:21;;;;;;;4.78;3.47;;;11.80;80.60;;;;;;1727694;83;21158;-80
2021/05/03 06:00:49;;;;;;;3.37;2.37;;;12.00;82.50;;;;;;1727216;83;21292;-81
2021/05/03 06:03:16;;;;;;;5.92;2.62;;;12.10;80.10;;;;;;1727228;82;21143;-80
2021/05/03 06:05:44;;;;;;;4.58;2.67;;;12.20;78.90;;;;;;1727505;83;21158;-81
2021/05/03 06:08:12;;;;;;;4.78;2.50;;;12.30;78.50;;;;;;1727228;82;21304;-80
2021/05/03 06:10:39;;;;;;;4.47;2.45;;;12.30;77.70;;;;;;1727438;83;21609;-80
2021/05/03 06:13:08;;;;;;;4.17;2.50;;;12.40;77.20;;;;;;1727281;83;21154;-80
2021/05/03 06:15:36;;;;;;;3.12;2.45;;;12.40;78.30;;;;;;1727464;83;21190;-81
2021/05/03 06:18:05;;;;;;;3.25;2.25;;;12.50;78.10;;;;;;1727408;83;21166;-80
2021/05/03 06:20:34;;;;;;;3.90;2.25;;;12.60;77.40;;;;;;1727493;83;21152;-81
2021/05/03 06:23:04;;;;;;;4.25;2.37;;;12.70;76.30;;;;;;1727442;83;21601;-80
2021/05/03 06:25:32;;;;;;;7.37;2.62;;;12.80;74.80;;;;;;1727230;83;21162;-81
2021/05/03 06:28:01;;;;;;;4.62;2.22;;;12.90;74.00;;;;;;1727433;83;21174;-80
2021/05/03 06:30:28;;;;;;;3.87;2.20;;;13.00;75.50;;;;;;1727353;83;21163;-81
2021/05/03 06:32:57;;;;;;;2.90;2.05;;;13.00;74.60;;;;;;1727228;83;21171;-81
2021/05/03 06:35:25;;;;;;;4.75;2.22;;;13.10;74.00;;;;;;1727584;83;21162;-80
2021/05/03 06:37:53;;;;;;;4.45;2.45;;;13.10;74.30;;;;;;1727378;83;21174;-80
2021/05/03 06:40:21;;;;;;;4.87;2.30;;;13.10;73.10;;;;;;1727189;83;21166;-80
2021/05/03 06:42:49;;;;;;;3.87;2.08;;;13.20;73.80;;;;;;1729280;81;21307;-80
2021/05/03 06:45:20;;;;;;;3.55;2.47;;;13.20;73.30;;;;;;1735698;83;21157;-80
2021/05/03 06:47:50;;;;;;;2.90;2.10;;;13.20;73.10;;;;;;1735693;83;21155;-81
2021/05/03 06:50:19;;;;;;;3.15;2.20;;;13.20;72.30;;;;;;1735661;83;21299;-80
2021/05/03 06:52:47;;;;;;;3.42;2.08;;;13.10;71.60;;;;;;1735484;82;21189;-80
2021/05/03 06:55:15;;;;;;;4.72;2.30;;;13.10;72.40;;;;;;1735775;81;21309;-81
2021/05/03 06:57:44;;;;;;;2.83;2.00;;;13.20;73.50;;;;;;1735498;83;21608;-81
2021/05/03 07:00:14;;;;;;;2.95;2.05;;;13.30;71.80;;;;;;1735508;83;21181;-80
2021/05/03 07:02:43;;;;;;;2.80;1.98;;;13.30;71.10;;;;;;1735632;83;21300;-81
2021/05/03 07:05:12;;;;;;;3.17;2.33;;;13.30;70.90;;;;;;1735823;82;21316;-81
2021/05/03 07:07:40;;;;;;;4.12;2.40;;;13.20;71.20;;;;;;1735837;83;21166;-80
2021/05/03 07:10:21;;;;;;;6.80;2.37;;;13.30;71.60;;;;;;1735589;82;21591;-81
2021/05/03 07:12:51;;;;;;;6.25;2.20;;;13.20;70.90;;;;;;1796808;80;21160;-81
2021/05/03 07:15:19;;;;;;;2.87;2.02;;;13.20;72.20;;;;;;1796667;80;21181;-81
2021/05/03 07:17:47;;;;;;;3.50;2.05;;;13.30;70.20;;;;;;1796512;80;21769;-81
2021/05/03 07:20:16;;;;;;;4.70;2.20;;;13.40;70.00;;;;;;1796794;79;21698;-81
2021/05/03 07:22:45;;;;;;;3.65;2.25;;;13.50;70.50;;;;;;1796468;80;21283;-80
2021/05/03 07:25:14;;;;;;;3.02;2.08;;;13.60;70.60;;;;;;1796591;79;21739;-81
2021/05/03 07:27:42;;;;;;;3.22;2.30;;;13.70;70.20;;;;;;1796462;80;21165;-80
2021/05/03 07:30:12;;;;;;;3.92;2.85;;;13.80;69.30;;;;;;1796668;80;21728;-80
2021/05/03 07:32:40;;;;;;;3.08;2.05;;;13.90;67.00;;;;;;1796882;80;21543;-80
2021/05/03 07:35:11;;;;;;;3.27;2.12;;;14.00;65.70;;;;;;1796468;80;21286;-81
2021/05/03 07:37:39;;;;;;;3.52;2.33;;;14.00;64.80;;;;;;1796685;80;21136;-81
2021/05/03 07:40:09;;;;;;;4.70;2.20;;;14.20;66.00;;;;;;1796742;80;21156;-81
2021/05/03 07:42:37;;;;;;;4.78;2.37;;;14.40;64.70;;;;;;1796759;80;21328;-81
2021/05/03 07:45:09;;;;;;;3.37;2.30;;;14.60;63.90;;;;;;1796201;80;21156;-80
2021/05/03 07:47:38;;;;;;;3.02;2.20;;;14.70;63.30;;;;;;1796696;80;21570;-80
2021/05/03 07:50:07;;;;;;;3.22;2.50;;;14.90;62.00;;;;;;1796697;80;21288;-80
2021/05/03 07:52:35;;;;;;;3.50;2.50;;;14.80;60.50;;;;;;1796659;79;21566;-80
2021/05/03 07:55:05;;;;;;;3.05;2.27;;;14.90;61.40;;;;;;1796648;80;21282;-81
2021/05/03 07:57:33;;;;;;;2.90;2.10;;;15.00;59.60;;;;;;1796643;80;21314;-81
2021/05/03 08:00:01;;;;;;;4.30;2.50;;;15.00;59.20;;;;;;1796655;80;21693;-80
2021/05/03 08:02:28;;;;;;;4.20;2.30;;;14.90;59.30;;;;;;1796427;80;21567;-80
2021/05/03 08:04:56;;;;;;;3.12;2.35;;;15.10;58.50;;;;;;1797170;80;21124;-80
2021/05/03 08:07:24;;;;;;;2.83;2.15;;;15.50;58.10;;;;;;1796469;80;21137;-81
2021/05/03 08:09:52;;;;;;;2.95;1.90;;;16.00;57.00;;;;;;1796532;80;21587;-79
2021/05/03 08:12:21;;;;;;;3.02;1.80;;;16.50;55.60;;;;;;1794629;79;21627;-81
2021/05/03 08:14:52;;;;;;;3.22;1.90;;;16.90;53.40;;;;;;1793999;80;21656;-81
2021/05/03 08:17:20;;;;;;;2.27;1.55;;;17.10;53.00;;;;;;1793965;80;21833;-80
2021/05/03 08:19:48;;;;;;;1.42;1.20;;;17.20;51.80;;;;;;1794076;80;21153;-81
2021/05/03 08:22:15;;;;;;;1.92;1.20;;;17.20;51.00;;;;;;1794256;80;21162;-80
2021/05/03 08:24:44;;;;;;;1.98;1.17;;;17.40;52.10;;;;;;1793974;80;21292;-82
2021/05/03 08:27:12;;;;;;;1.98;1.20;;;17.80;50.60;;;;;;1793939;80;21123;-82
2021/05/03 08:29:40;;;;;;;2.05;1.10;;;17.40;49.90;;;;;;1794001;80;21147;-82
2021/05/03 08:32:09;;;;;;;1.62;1.10;;;17.40;51.10;;;;;;1794176;80;21143;-81
2021/05/03 08:34:38;;;;;;;3.00;1.47;;;17.10;51.00;;;;;;1794233;80;21163;-80
2021/05/03 08:37:05;;;;;;;1.65;1.00;;;17.40;51.30;;;;;;1793977;80;21579;-80
2021/05/03 08:39:33;;;;;;;1.07;0.80;;;17.60;50.00;;;;;;1794017;80;21138;-81
2021/05/03 08:42:01;;;;;;;1.87;1.00;;;17.70;49.30;;;;;;1793897;80;21110;-81
2021/05/03 08:44:32;;;;;;;2.50;1.35;;;18.00;48.80;;;;;;1794225;80;21556;-80
2021/05/03 08:47:00;;;;;;;1.15;1.00;;;17.90;50.20;;;;;;1794101;80;21123;-81
2021/05/03 08:49:50;;;;;;;2.00;1.00;;;18.00;47.90;;;;;;1794019;80;21851;-82
2021/05/03 08:54:44;;;;;;;3.15;1.27;;;18.30;46.70;;;;;;1794970;80;21530;-81
2021/05/03 08:57:14;;;;;;;1.92;1.12;;;18.70;48.60;;;;;;1794001;80;21158;-79
2021/05/03 08:59:43;;;;;;;2.62;1.42;;;18.90;46.10;;;;;;1794255;80;21173;-80
2021/05/03 09:02:14;;;;;;;2.20;1.22;;;18.80;46.40;;;;;;1795003;80;21196;-79
2021/05/03 09:04:44;;;;;;;3.33;1.60;;;19.00;47.20;;;;;;1794843;80;21260;-80
2021/05/03 09:07:16;;;;;;;3.15;1.47;;;18.90;47.20;;;;;;1794074;80;21162;-79
2021/05/03 09:09:53;;;;;;;2.30;1.50;;;18.80;47.20;;;;;;1794099;80;21552;-80
2021/05/03 09:12:24;;;;;;;2.83;1.30;;;18.30;47.60;;;;;;1795176;80;21160;-80
2021/05/03 09:15:00;;;;;;;2.27;1.30;;;18.10;48.70;;;;;;1774852;81;21308;-80
2021/05/03 09:17:38;;;;;;;2.52;1.70;;;18.20;48.40;;;;;;1795021;80;21455;-80
2021/05/03 09:20:20;;;;;;;3.27;1.52;;;18.20;48.60;;;;;;1796214;80;21546;-79
2021/05/03 09:22:54;;;;;;;2.65;1.85;;;18.10;49.30;;;;;;1796121;80;21128;-80
2021/05/03 09:25:39;;;;;;;2.55;1.50;;;17.90;49.20;;;;;;1796236;80;21125;-80
2021/05/03 09:28:27;;;;;;;1.90;1.30;;;17.80;49.40;;;;;;1796245;80;21124;-80
2021/05/03 09:31:00;;;;;;;1.82;1.30;;;17.60;49.80;;;;;;1795539;79;21137;-80
2021/05/03 09:33:38;;;;;;;2.22;1.40;;;17.40;50.60;;;;;;1796149;80;21539;-80
2021/05/03 09:36:12;;;;;;;1.90;1.32;;;17.20;50.80;;;;;;1796402;80;21101;-80
2021/05/03 09:38:46;;;;;;;1.77;1.35;;;17.00;50.00;;;;;;1796222;80;21113;-81
2021/05/03 09:41:27;;;;;;;2.37;1.30;;;16.60;50.50;;;;;;1796104;80;21097;-80
2021/05/03 09:44:08;;;;;;;3.62;1.82;;;16.50;51.90;;;;;;1796010;79;21639;-80
2021/05/03 09:46:47;;;;;;;2.90;1.60;;;16.40;50.90;;;;;;1796122;80;21124;-80
2021/05/03 09:49:21;;;;;;;2.15;1.37;;;16.30;52.70;;;;;;1796373;80;21290;-80
2021/05/03 09:51:57;;;;;;;2.47;1.50;;;16.20;51.50;;;;;;1795589;80;21180;-81
2021/05/03 09:54:30;;;;;;;3.08;1.60;;;16.00;51.50;;;;;;1796170;80;21552;-80
2021/05/03 09:57:06;;;;;;;2.40;1.50;;;15.90;52.50;;;;;;1796387;80;21132;-80
2021/05/03 09:59:52;;;;;;;3.62;1.77;;;15.80;52.50;;;;;;1796418;80;21136;-80
2021/05/03 10:02:28;;;;;;;3.15;1.60;;;15.70;53.10;;;;;;1796367;80;21133;-80
2021/05/03 10:05:15;;;;;;;2.45;1.60;;;15.60;53.70;;;;;;1796485;80;21133;-80
2021/05/03 10:07:51;;;;;;;3.05;2.02;;;15.60;53.90;;;;;;1796228;80;21566;-80
2021/05/03 10:10:17;;;;;;;3.00;2.10;;;15.50;54.30;;;;;;1794865;80;21117;-81
2021/05/03 10:12:43;;;;;;;3.42;1.80;;;15.50;54.70;;;;;;1795650;80;21140;-80
2021/05/03 10:15:14;;;;;;;2.67;1.72;;;15.50;55.00;;;;;;1796356;80;21321;-79
2021/05/03 10:17:45;;;;;;;2.40;1.65;;;15.50;55.20;;;;;;1796114;80;21148;-80
2021/05/03 10:20:19;;;;;;;2.55;1.98;;;15.50;55.60;;;;;;1796283;80;21160;-80
2021/05/03 10:22:56;;;;;;;2.45;1.70;;;15.50;55.40;;;;;;1796125;80;21128;-80
2021/05/03 10:25:24;;;;;;;3.65;1.75;;;15.40;56.20;;;;;;1796345;80;21539;-81
2021/05/03 10:27:53;;;;;;;4.22;1.70;;;15.40;55.90;;;;;;1796076;80;21143;-81
2021/05/03 10:30:27;;;;;;;3.08;1.90;;;15.30;56.60;;;;;;1796219;80;21117;-81
2021/05/03 10:33:11;;;;;;;2.62;1.70;;;15.30;56.60;;;;;;1796286;80;21136;-81
2021/05/03 10:35:45;;;;;;;2.70;1.80;;;15.20;56.80;;;;;;1795974;80;21125;-81
2021/05/03 10:38:37;;;;;;;2.95;1.62;;;15.10;55.80;;;;;;1796351;80;21575;-81
2021/05/03 10:41:27;;;;;;;4.78;1.80;;;15.10;56.30;;;;;;1796463;80;21697;-82
2021/05/03 10:44:23;;;;;;;3.60;1.70;;;15.10;56.80;;;;;;1796456;80;21097;-81
2021/05/03 10:47:08;;;;;;;1.87;1.40;;;15.20;57.20;;;;;;1795910;80;21683;-81
2021/05/03 10:49:45;;;;;;;4.08;1.50;;;15.20;54.50;;;;;;1795760;80;21594;-81
2021/05/03 10:52:14;;;;;;;2.40;1.50;;;15.20;53.70;;;;;;1795434;80;21159;-81
2021/05/03 10:54:49;;;;;;;2.70;1.30;;;15.30;52.70;;;;;;1796505;80;21278;-82
2021/05/03 10:57:25;;;;;;;2.47;1.50;;;15.30;53.00;;;;;;1796339;80;21258;-81
2021/05/03 10:59:56;;;;;;;3.58;1.40;;;15.40;53.60;;;;;;1796353;80;21160;-81
2021/05/03 11:02:44;;;;;;;2.47;1.50;;;15.40;53.50;;;;;;1796226;80;21132;-82
2021/05/03 11:05:21;;;;;;;1.80;1.27;;;15.50;53.10;;;;;;1796685;80;21156;-80
2021/05/03 11:08:10;;;;;;;2.08;1.35;;;15.50;51.60;;;;;;1795738;80;21131;-81
2021/05/03 11:11:02;;;;;;;1.95;1.30;;;15.60;52.30;;;;;;1796228;80;21585;-81
2021/05/03 11:13:49;;;;;;;3.22;1.50;;;15.50;50.30;;;;;;1743996;82;21163;-81
2021/05/03 11:16:33;;;;;;;1.80;1.30;;;15.40;50.00;;;;;;1744259;82;21608;-81
2021/05/03 11:19:26;;;;;;;4.37;1.37;;;15.50;50.40;;;;;;1712974;84;21581;-81
2021/05/03 11:21:55;;;;;;;2.55;1.37;;;15.50;49.90;;;;;;1744169;82;21236;-81
2021/05/03 11:32:12;;;;;;;2.00;1.30;;;15.70;50.20;;;;;;1744235;82;21557;-81
2021/05/03 11:35:10;;;;;;;1.95;1.17;;;15.70;47.80;;;;;;1744020;82;21156;-81
2021/05/03 11:38:05;;;;;;;1.37;1.10;;;15.70;48.80;;;;;;1744477;82;21162;-81
2021/05/03 11:46:10;;;;;;;3.37;2.02;;;15.80;48.00;;;;;;1744043;82;20412;-80
2021/05/03 11:48:38;;;;;;;2.65;1.10;;;15.80;47.80;;;;;;1744329;82;21712;-82
2021/05/03 11:51:10;;;;;;;1.98;1.25;;;15.80;47.40;;;;;;1744074;82;21159;-81
2021/05/03 11:53:42;;;;;;;1.75;1.10;;;15.80;47.30;;;;;;1744199;82;21111;-82
2021/05/03 11:56:30;;;;;;;1.60;1.00;;;15.70;46.50;;;;;;1744047;82;21151;-81
2021/05/03 11:59:00;;;;;;;2.27;1.10;;;15.60;46.70;;;;;;1744140;82;21143;-79
2021/05/03 12:01:30;;;;;;;1.70;1.10;;;15.70;47.00;;;;;;1744116;82;21576;-80
2021/05/03 12:03:59;;;;;;;1.70;1.00;;;15.60;46.40;;;;;;1744302;82;21276;-79
2021/05/03 12:06:40;;;;;;;2.08;1.07;;;15.70;48.80;;;;;;1744131;82;21158;-80
2021/05/03 12:09:14;;;;;;;3.33;1.17;;;15.70;48.40;;;;;;1744683;82;21284;-80
2021/05/03 12:11:58;;;;;;;1.80;1.00;;;15.80;47.10;;;;;;1740462;81;21152;-81
2021/05/03 12:14:47;;;;;;;3.15;1.10;;;15.70;46.10;;;;;;1731216;83;21522;-81
2021/05/03 12:17:23;;;;;;;1.95;1.25;;;15.80;46.30;;;;;;1731296;83;21590;-80
2021/05/03 12:19:54;;;;;;;;;;;15.80;46.10;;;;;;1733763;83;21135;-81
2021/05/03 12:22:24;;;;;;;1.92;1.20;;;15.80;47.10;;;;;;1731079;82;20177;-81
2021/05/03 12:24:57;;;;;;;4.12;1.20;;;15.80;47.20;;;;;;1731372;83;21700;-81
2021/05/03 12:27:31;;;;;;;1.87;1.10;;;15.90;46.20;;;;;;1730850;83;21171;-81
2021/05/03 12:30:01;;;;;;;2.52;1.25;;;15.90;46.00;;;;;;1700852;84;21168;-81
2021/05/03 12:32:36;;;;;;;2.25;1.15;;;15.90;46.60;;;;;;1700540;84;21156;-80
2021/05/03 12:35:11;;;;;;;2.83;1.40;;;15.90;46.90;;;;;;1731202;82;21108;-81
2021/05/03 12:37:40;;;;;;;1.52;1.20;;;15.80;47.20;;;;;;1731450;82;21167;-79
2021/05/03 12:40:18;;;;;;;2.10;1.10;;;15.90;47.70;;;;;;1731176;82;21653;-80
2021/05/03 12:42:49;;;;;;;1.87;1.30;;;15.90;47.10;;;;;;1731543;82;21610;-80
2021/05/03 13:06:06;;;;;;;3.17;1.40;;;15.90;46.30;;;;;;1731216;82;21573;-81
2021/05/03 13:30:24;;;;;;;1.95;1.00;;;16.10;44.40;;;;;;1731162;82;21124;-80
2021/05/03 13:32:52;;;;;;;;;;;16.10;43.50;;;;;;1734008;82;21131;-80
2021/05/03 13:35:21;;;;;;;2.08;1.10;;;16.10;42.20;;;;;;1731704;82;20164;-80
2021/05/03 13:37:49;;;;;;;1.75;1.10;;;16.10;41.50;;;;;;1701112;84;21342;-80
2021/05/03 13:40:17;;;;;;;1.90;1.25;;;16.20;41.50;;;;;;1731339;83;21146;-80
2021/05/03 13:42:50;;;;;;;2.92;1.20;;;16.20;41.10;;;;;;1731319;83;21164;-80
2021/05/03 13:45:20;;;;;;;1.62;1.10;;;16.20;40.80;;;;;;1731174;83;21135;-80
2021/05/03 13:47:49;;;;;;;2.30;1.20;;;16.30;40.40;;;;;;1731359;83;21277;-81
2021/05/03 13:50:18;;;;;;;2.83;1.40;;;16.40;40.80;;;;;;1731166;82;21151;-80
2021/05/03 13:52:46;;;;;;;3.27;1.20;;;16.50;38.80;;;;;;1731310;83;21163;-80
2021/05/03 13:55:14;;;;;;;3.15;1.27;;;16.40;36.60;;;;;;1731249;82;21613;-80
2021/05/03 13:57:41;;;;;;;2.67;1.30;;;16.50;36.80;;;;;;1731139;82;21147;-80
2021/05/03 14:00:10;;;;;;;1.80;1.20;;;16.40;37.40;;;;;;1731324;82;21614;-81
2021/05/03 14:02:39;;;;;;;1.62;1.10;;;16.30;36.00;;;;;;1731148;82;21155;-80
2021/05/03 14:05:09;;;;;;;1.50;1.12;;;16.20;35.00;;;;;;1731142;82;21144;-80
2021/05/03 14:07:38;;;;;;;2.10;1.17;;;16.30;35.50;;;;;;1731127;83;21123;-80
2021/05/03 14:10:19;;;;;;;3.15;1.52;;;16.30;36.40;;;;;;1731193;83;21604;-80
2021/05/03 14:12:47;;;;;;;4.25;1.40;;;16.30;35.90;;;;;;1733418;83;21184;-80
2021/05/03 14:15:21;;;;;;;1.85;1.20;;;16.30;35.30;;;;;;1733248;83;21610;-81
2021/05/03 14:17:44;;;;;;;2.33;1.12;;;16.20;34.90;;;;;;1732543;83;21314;-80
2021/05/03 14:20:13;;;;;;;2.62;1.37;;;16.30;36.40;;;;;;1733202;82;21168;-80